createdAt,value
2023-01-07T00:02:56.263Z,6.52
2023-01-07T00:06:05.698Z,6.51
2023-01-07T00:09:08.444Z,6.48
2023-01-07T00:12:09.969Z,6.50
2023-01-07T00:15:12.596Z,6.52
2023-01-07T00:18:14.114Z,6.51
2023-01-07T00:21:16.931Z,6.49
2023-01-07T00:24:18.804Z,6.49
2023-01-07T00:27:20.367Z,6.49
2023-01-07T00:30:21.896Z,6.50
2023-01-07T00:33:23.742Z,6.51
2023-01-07T00:36:27.324Z,6.51
2023-01-07T00:39:28.873Z,6.51
2023-01-07T00:42:48.982Z,6.50
2023-01-07T00:45:51.024Z,6.49
2023-01-07T00:48:52.550Z,6.45
2023-01-07T00:51:54.077Z,6.46
2023-01-07T00:54:55.593Z,6.45
2023-01-07T00:57:57.190Z,6.42
2023-01-07T01:01:00.368Z,6.44
2023-01-07T01:04:02.575Z,6.43
2023-01-07T01:07:04.081Z,6.43
2023-01-07T01:10:06.896Z,6.44
2023-01-07T01:13:10.567Z,6.42
2023-01-07T01:16:14.332Z,6.40
2023-01-07T01:19:15.913Z,6.38
2023-01-07T01:22:17.398Z,6.41
2023-01-07T01:25:19.039Z,6.39
2023-01-07T01:28:20.532Z,6.37
2023-01-07T01:31:22.115Z,6.37
2023-01-07T01:34:23.674Z,6.35
2023-01-07T01:37:25.177Z,6.37
2023-01-07T01:40:29.686Z,6.36
2023-01-07T01:43:40.134Z,6.35
2023-01-07T01:46:42.079Z,6.36
2023-01-07T01:50:08.035Z,6.37
2023-01-07T01:53:09.529Z,6.36
2023-01-07T01:56:12.556Z,6.40
2023-01-07T01:59:17.890Z,6.36
2023-01-07T02:02:31.728Z,6.39
2023-01-07T02:05:35.325Z,6.40
2023-01-07T02:08:36.845Z,6.36
2023-01-07T02:11:59.549Z,6.39
2023-01-07T02:15:00.950Z,6.36
2023-01-07T02:18:05.063Z,6.33
2023-01-07T02:21:29.694Z,6.31
2023-01-07T02:24:49.441Z,6.31
2023-01-07T02:27:56.959Z,6.31
2023-01-07T02:31:25.665Z,6.31
2023-01-07T02:34:41.925Z,6.32
2023-01-07T02:37:51.813Z,6.31
2023-01-07T02:41:07.927Z,6.33
2023-01-07T02:44:14.988Z,6.35
2023-01-07T02:47:45.742Z,6.34
2023-01-07T02:50:47.279Z,6.32
2023-01-07T02:53:48.796Z,6.32
2023-01-07T02:57:10.492Z,6.31
2023-01-07T03:00:39.563Z,6.25
2023-01-07T03:03:46.873Z,6.26
2023-01-07T03:07:15.499Z,6.26
2023-01-07T03:10:22.535Z,6.23
2023-01-07T03:13:25.770Z,6.24
2023-01-07T03:16:32.148Z,6.24
2023-01-07T03:19:35.707Z,6.21
2023-01-07T03:22:37.211Z,6.16
2023-01-07T03:25:45.574Z,6.17
2023-01-07T03:28:47.099Z,6.14
2023-01-07T03:32:02.962Z,6.13
2023-01-07T03:35:05.632Z,6.14
2023-01-07T03:38:07.159Z,6.14
2023-01-07T03:41:08.724Z,6.13
2023-01-07T03:44:10.227Z,6.12
2023-01-07T03:47:11.845Z,6.11
2023-01-07T03:50:13.421Z,6.11
2023-01-07T03:53:14.964Z,6.15
2023-01-07T03:56:16.480Z,6.14
2023-01-07T03:59:18.046Z,6.11
2023-01-07T04:02:19.560Z,6.13
2023-01-07T04:05:21.081Z,6.13
2023-01-07T04:08:22.574Z,6.12
2023-01-07T04:11:24.209Z,6.11
2023-01-07T04:14:25.815Z,6.08
2023-01-07T04:17:27.377Z,6.02
2023-01-07T04:20:28.899Z,6.04
2023-01-07T04:23:30.419Z,6.05
2023-01-07T04:26:33.799Z,5.99
2023-01-07T04:29:35.347Z,6.05
2023-01-07T04:32:36.878Z,6.05
2023-01-07T04:35:39.293Z,6.03
2023-01-07T04:38:40.713Z,6.01
2023-01-07T04:41:42.233Z,5.99
2023-01-07T04:44:43.774Z,5.99
2023-01-07T04:47:45.328Z,5.97
2023-01-07T04:50:47.590Z,5.98
2023-01-07T04:53:49.131Z,5.98
2023-01-07T04:56:50.810Z,6.00
2023-01-07T04:59:52.347Z,5.99
2023-01-07T05:02:53.872Z,5.99
2023-01-07T05:05:55.390Z,6.00
2023-01-07T05:08:57.025Z,6.01
2023-01-07T05:11:58.545Z,6.00
2023-01-07T05:15:00.053Z,6.00
2023-01-07T05:18:01.612Z,5.99
2023-01-07T05:21:03.511Z,6.00
2023-01-07T05:24:05.129Z,5.99
2023-01-07T05:27:06.685Z,5.95
2023-01-07T05:30:08.589Z,5.91
2023-01-07T05:33:10.128Z,5.91
2023-01-07T05:36:11.976Z,5.89
2023-01-07T05:39:13.534Z,5.89
2023-01-07T05:42:15.043Z,5.90
2023-01-07T05:45:16.615Z,5.88
2023-01-07T05:48:18.094Z,5.87
2023-01-07T05:51:19.766Z,5.86
2023-01-07T05:54:21.281Z,5.89
2023-01-07T05:57:22.773Z,5.84
2023-01-07T06:00:24.302Z,5.84
2023-01-07T06:03:25.868Z,5.81
2023-01-07T06:06:27.433Z,5.84
2023-01-07T06:09:29.997Z,5.86
2023-01-07T06:12:31.567Z,5.86
2023-01-07T06:15:33.150Z,5.87
2023-01-07T06:18:35.290Z,5.89
2023-01-07T06:21:36.969Z,5.88
2023-01-07T06:24:38.751Z,5.86
2023-01-07T06:27:43.214Z,5.84
2023-01-07T06:30:47.701Z,5.84
2023-01-07T06:33:49.301Z,5.86
2023-01-07T06:36:51.555Z,5.86
2023-01-07T06:39:53.134Z,5.81
2023-01-07T06:42:54.633Z,5.82
2023-01-07T06:45:56.353Z,5.85
2023-01-07T06:48:58.119Z,5.80
2023-01-07T06:51:59.656Z,5.78
2023-01-07T06:55:01.419Z,5.78
2023-01-07T06:58:02.919Z,5.78
2023-01-07T07:01:07.911Z,5.77
2023-01-07T07:04:09.549Z,5.76
2023-01-07T07:07:11.079Z,5.75
2023-01-07T07:10:12.775Z,5.71
2023-01-07T07:13:14.278Z,5.73
2023-01-07T07:16:15.864Z,5.72
2023-01-07T07:19:17.521Z,5.71
2023-01-07T07:22:19.189Z,5.72
2023-01-07T07:25:20.801Z,5.74
2023-01-07T07:28:22.401Z,5.75
2023-01-07T07:31:24.156Z,5.76
2023-01-07T07:34:25.853Z,5.72
2023-01-07T07:37:27.528Z,5.74
2023-01-07T07:40:29.373Z,5.76
2023-01-07T07:43:30.976Z,5.77
2023-01-07T07:46:32.634Z,5.78
2023-01-07T07:49:34.291Z,5.83
2023-01-07T07:52:35.891Z,5.83
2023-01-07T07:55:41.104Z,5.82
2023-01-07T07:58:43.283Z,5.85
2023-01-07T08:01:44.961Z,5.87
2023-01-07T08:04:46.927Z,5.85
2023-01-07T08:07:48.536Z,5.88
2023-01-07T08:10:50.191Z,5.88
2023-01-07T08:13:51.858Z,5.90
2023-01-07T08:16:53.765Z,5.92
2023-01-07T08:19:55.379Z,5.94
2023-01-07T08:23:00.820Z,5.92
2023-01-07T08:26:03.072Z,5.87
2023-01-07T08:29:04.568Z,5.91
2023-01-07T08:32:06.182Z,5.94
2023-01-07T08:35:08.117Z,5.98
2023-01-07T08:38:09.743Z,6.01
2023-01-07T08:41:11.278Z,6.07
2023-01-07T08:44:12.811Z,6.10
2023-01-07T08:47:14.561Z,6.19
2023-01-07T08:50:16.199Z,6.24
2023-01-07T08:53:20.956Z,6.35
2023-01-07T08:56:22.925Z,6.43
2023-01-07T08:59:24.555Z,6.46
2023-01-07T09:02:26.238Z,6.56
2023-01-07T09:05:27.793Z,6.78
2023-01-07T09:08:29.330Z,6.93
2023-01-07T09:11:30.861Z,7.01
2023-01-07T09:14:32.405Z,7.03
2023-01-07T09:17:33.910Z,6.88
2023-01-07T09:20:35.589Z,6.79
2023-01-07T09:23:37.205Z,6.86
2023-01-07T09:26:38.710Z,7.03
2023-01-07T09:29:40.895Z,7.09
2023-01-07T09:32:43.213Z,7.08
2023-01-07T09:35:44.644Z,7.11
2023-01-07T09:38:46.137Z,7.27
2023-01-07T09:41:53.567Z,7.30
2023-01-07T09:45:34.835Z,7.41
2023-01-07T09:48:44.151Z,7.72
2023-01-07T09:51:48.531Z,7.67
2023-01-07T09:54:53.489Z,8.22
2023-01-07T09:57:55.035Z,8.56
2023-01-07T10:01:24.786Z,8.39
2023-01-07T10:04:50.398Z,9.65
2023-01-07T10:08:30.714Z,9.93
2023-01-07T10:12:00.509Z,9.57
2023-01-07T10:15:29.864Z,9.82
2023-01-07T10:18:41.578Z,10.87
2023-01-07T10:21:52.195Z,12.76
2023-01-07T10:24:57.435Z,11.99
2023-01-07T10:28:00.442Z,12.89
2023-01-07T10:31:01.982Z,12.79
2023-01-07T10:34:06.010Z,12.97
2023-01-07T10:37:11.763Z,12.72
2023-01-07T10:40:32.148Z,13.51
2023-01-07T10:43:37.745Z,13.89
2023-01-07T10:46:57.471Z,14.29
2023-01-07T10:50:21.225Z,14.19
2023-01-07T10:53:49.439Z,13.60
2023-01-07T10:56:53.187Z,14.33
2023-01-07T10:59:56.431Z,14.68
2023-01-07T11:02:58.907Z,15.30
2023-01-07T11:06:04.570Z,15.62
2023-01-07T11:09:09.047Z,16.76
2023-01-07T11:12:25.808Z,16.56
2023-01-07T11:15:44.208Z,17.03
2023-01-07T11:18:55.074Z,16.36
2023-01-07T11:21:56.601Z,14.83
2023-01-07T11:24:58.511Z,13.49
2023-01-07T11:28:01.945Z,12.53
2023-01-07T11:31:03.490Z,11.95
2023-01-07T11:34:05.261Z,11.57
2023-01-07T11:37:06.831Z,11.52
2023-01-07T11:40:14.772Z,11.29
2023-01-07T11:43:16.204Z,11.21
2023-01-07T11:46:19.955Z,11.27
2023-01-07T11:49:28.127Z,11.23
2023-01-07T11:52:29.623Z,11.35
2023-01-07T11:55:31.250Z,12.20
2023-01-07T11:58:46.884Z,12.77
2023-01-07T12:01:50.123Z,12.32
2023-01-07T12:04:51.665Z,11.53
2023-01-07T12:07:53.260Z,11.40
2023-01-07T12:10:56.028Z,11.46
2023-01-07T12:13:57.751Z,11.43
2023-01-07T12:17:16.076Z,11.29
2023-01-07T12:20:36.033Z,11.29
2023-01-07T12:23:44.545Z,11.24
2023-01-07T12:27:11.277Z,11.32
2023-01-07T12:30:31.352Z,11.27
2023-01-07T12:33:48.148Z,11.26
2023-01-07T12:36:54.608Z,11.40
2023-01-07T12:40:10.894Z,11.34
2023-01-07T12:43:23.582Z,11.19
2023-01-07T12:46:25.191Z,11.21
2023-01-07T12:49:29.862Z,11.13
2023-01-07T12:52:41.619Z,11.12
2023-01-07T12:55:46.110Z,11.14
2023-01-07T12:59:07.115Z,11.09
2023-01-07T13:02:48.638Z,11.12
2023-01-07T13:05:56.338Z,10.96
2023-01-07T13:08:58.867Z,11.06
2023-01-07T13:12:43.042Z,11.02
2023-01-07T13:15:45.062Z,11.00
2023-01-07T13:18:46.651Z,11.01
2023-01-07T13:21:48.238Z,10.99
2023-01-07T13:25:14.813Z,10.99
2023-01-07T13:28:48.984Z,11.02
2023-01-07T13:32:15.490Z,10.95
2023-01-07T13:35:38.971Z,10.97
2023-01-07T13:39:11.997Z,10.94
2023-01-07T13:42:39.037Z,10.87
2023-01-07T13:45:40.751Z,10.91
2023-01-07T13:48:50.255Z,11.09
2023-01-07T13:51:51.882Z,11.02
2023-01-07T13:54:58.228Z,10.88
2023-01-07T13:57:59.889Z,10.75
2023-01-07T14:01:17.859Z,10.71
2023-01-07T14:04:48.085Z,10.43
2023-01-07T14:08:00.453Z,10.38
2023-01-07T19:41:57.713Z,3.06
2023-01-07T19:44:59.259Z,3.05
2023-01-07T19:48:00.885Z,3.15
2023-01-07T19:51:03.705Z,3.14
2023-01-07T19:54:05.379Z,3.21
2023-01-07T19:57:06.905Z,3.29
2023-01-07T20:00:09.262Z,2.96
2023-01-07T20:03:11.175Z,3.03
2023-01-07T20:06:14.381Z,3.08
2023-01-07T20:09:15.922Z,3.05
2023-01-07T20:12:17.427Z,2.93
2023-01-07T20:15:19.328Z,2.83
2023-01-07T20:18:21.241Z,2.85
2023-01-07T20:21:25.418Z,2.82
2023-01-07T20:24:27.052Z,2.81
2023-01-07T20:27:28.621Z,2.83
2023-01-07T20:30:30.200Z,2.77
2023-01-07T20:33:31.739Z,2.90
2023-01-07T20:36:33.264Z,2.74
2023-01-07T20:39:37.634Z,2.62
2023-01-07T20:42:39.138Z,2.61
2023-01-07T20:45:40.764Z,2.60
2023-01-07T20:48:42.309Z,2.66
2023-01-07T20:51:43.862Z,2.65
2023-01-07T20:54:47.261Z,2.59
2023-01-07T20:57:48.968Z,2.55
2023-01-07T21:00:50.651Z,2.53
2023-01-07T21:03:54.262Z,2.55
2023-01-07T21:06:58.594Z,2.54
2023-01-07T21:10:00.135Z,2.50
2023-01-07T21:13:01.653Z,2.57
2023-01-07T21:16:04.058Z,2.38
2023-01-07T21:19:05.681Z,2.25
2023-01-07T21:22:07.198Z,2.25
2023-01-07T21:25:11.170Z,2.17
2023-01-07T21:28:13.016Z,2.17
2023-01-07T21:31:15.432Z,2.20
2023-01-07T21:34:17.375Z,2.28
2023-01-07T21:37:18.889Z,2.34
2023-01-07T21:40:20.872Z,2.31
2023-01-07T21:43:22.390Z,2.28
2023-01-07T21:46:23.964Z,2.24
2023-01-07T21:49:25.564Z,2.17
2023-01-07T21:52:27.076Z,2.21
2023-01-07T21:55:30.956Z,2.26
2023-01-07T21:58:32.566Z,2.21
2023-01-07T22:01:34.872Z,2.25
2023-01-07T22:04:40.657Z,2.29
2023-01-07T22:07:42.196Z,2.21
2023-01-07T22:10:48.221Z,2.24
2023-01-07T22:13:57.095Z,2.19
2023-01-07T22:16:58.637Z,2.13
2023-01-07T22:20:00.282Z,2.10
2023-01-07T22:23:01.832Z,2.22
2023-01-07T22:26:04.768Z,2.19
2023-01-07T22:29:06.946Z,2.21
2023-01-07T22:32:12.916Z,2.25
2023-01-07T22:35:14.804Z,2.29
2023-01-07T22:38:16.319Z,2.25
2023-01-07T22:41:17.970Z,2.26
2023-01-07T22:44:22.335Z,2.36
2023-01-07T22:47:26.711Z,2.39
2023-01-07T22:50:28.293Z,2.45
2023-01-07T22:53:30.008Z,2.48
2023-01-07T22:56:32.494Z,2.62
2023-01-07T22:59:35.653Z,2.70
2023-01-07T23:02:37.204Z,2.79
2023-01-07T23:05:39.807Z,2.76
2023-01-07T23:08:41.365Z,2.87
2023-01-07T23:11:48.837Z,2.96
2023-01-07T23:14:50.367Z,3.18
2023-01-07T23:17:51.929Z,2.99
2023-01-07T23:20:53.484Z,2.93
2023-01-07T23:23:55.005Z,2.99
2023-01-07T23:26:57.324Z,3.02
2023-01-07T23:29:58.932Z,3.19
2023-01-07T23:33:00.479Z,3.27
2023-01-07T23:36:06.291Z,3.21
2023-01-07T23:39:07.832Z,3.26
2023-01-07T23:42:09.351Z,3.30
2023-01-07T23:45:11.244Z,3.31
2023-01-07T23:48:12.729Z,3.36
2023-01-07T23:51:15.911Z,3.50
2023-01-07T23:54:17.460Z,3.77
2023-01-07T23:57:18.988Z,3.92
